createdAt,value
2023-02-13T00:00:09.916Z,19.33
2023-02-13T00:02:38.458Z,21.60
2023-02-13T00:05:07.549Z,18.93
2023-02-13T00:07:35.999Z,18.93
2023-02-13T00:10:08.838Z,18.50
2023-02-13T00:12:38.714Z,20.10
2023-02-13T00:15:07.814Z,19.43
2023-02-13T00:17:36.883Z,19.53
2023-02-13T00:20:06.718Z,20.53
2023-02-13T00:22:37.066Z,18.20
2023-02-13T00:25:06.337Z,16.93
2023-02-13T00:27:35.824Z,17.47
2023-02-13T00:30:06.434Z,15.30
2023-02-13T00:32:35.186Z,18.20
2023-02-13T00:35:06.929Z,17.23
2023-02-13T00:37:35.683Z,21.90
2023-02-13T00:40:05.871Z,18.17
2023-02-13T00:42:34.903Z,19.70
2023-02-13T00:45:05.985Z,19.40
2023-02-13T00:47:35.897Z,20.80
2023-02-13T00:50:07.460Z,18.33
2023-02-13T00:52:37.032Z,20.07
2023-02-13T00:55:05.779Z,19.93
2023-02-13T00:57:34.716Z,20.30
2023-02-13T01:00:05.535Z,20.63
2023-02-13T01:02:36.289Z,21.73
2023-02-13T01:05:06.912Z,19.50
2023-02-13T01:07:35.434Z,20.37
2023-02-13T01:10:05.195Z,19.40
2023-02-13T01:12:33.957Z,18.50
2023-02-13T01:15:02.445Z,18.83
2023-02-13T01:17:30.889Z,18.53
2023-02-13T01:20:00.822Z,21.30
2023-02-13T01:22:29.171Z,20.90
2023-02-13T01:25:00.203Z,20.33
2023-02-13T01:27:32.750Z,21.60
2023-02-13T01:30:01.547Z,22.07
2023-02-13T01:32:32.048Z,21.47
2023-02-13T01:35:02.315Z,21.07
2023-02-13T01:37:30.610Z,19.83
2023-02-13T01:39:59.973Z,19.30
2023-02-13T01:42:32.245Z,21.50
2023-02-13T01:45:03.123Z,21.73
2023-02-13T01:47:41.350Z,20.17
2023-02-13T01:50:18.338Z,20.17
2023-02-13T01:52:52.326Z,21.77
2023-02-13T01:55:21.156Z,19.13
2023-02-13T01:57:54.796Z,18.47
2023-02-13T02:00:23.816Z,21.20
2023-02-13T02:02:55.776Z,19.90
2023-02-13T02:05:30.092Z,21.50
2023-02-13T02:08:01.484Z,19.20
2023-02-13T02:10:32.931Z,18.73
2023-02-13T02:13:07.835Z,19.90
2023-02-13T02:15:37.128Z,19.30
2023-02-13T02:18:08.112Z,21.00
2023-02-13T02:20:58.282Z,20.07
2023-02-13T02:23:48.332Z,21.10
2023-02-13T02:26:56.991Z,23.67
2023-02-13T02:29:59.696Z,22.80
2023-02-13T02:32:49.540Z,23.33
2023-02-13T02:35:27.129Z,18.47
2023-02-13T02:38:09.470Z,20.33
2023-02-13T02:40:44.689Z,20.13
2023-02-13T02:43:28.853Z,19.40
2023-02-13T02:46:08.291Z,19.57
2023-02-13T02:49:03.677Z,19.37
2023-02-13T02:51:39.668Z,17.60
2023-02-13T02:54:33.984Z,18.67
2023-02-13T02:57:14.358Z,17.80
2023-02-13T03:00:04.971Z,18.30
2023-02-13T03:02:52.508Z,20.87
2023-02-13T03:05:45.965Z,20.77
2023-02-13T03:08:15.343Z,18.77
2023-02-13T03:11:03.766Z,21.30
2023-02-13T03:13:40.111Z,18.87
2023-02-13T03:16:34.025Z,19.37
2023-02-13T03:19:20.213Z,16.77
2023-02-13T03:22:13.987Z,18.60
2023-02-13T03:24:51.508Z,17.27
2023-02-13T03:27:43.724Z,19.07
2023-02-13T03:30:20.369Z,18.20
2023-02-13T03:33:00.152Z,19.37
2023-02-13T03:35:53.714Z,17.70
2023-02-13T03:38:30.610Z,20.00
2023-02-13T03:41:20.336Z,19.23
2023-02-13T03:44:01.107Z,17.97
2023-02-13T03:46:34.850Z,17.33
2023-02-13T03:49:23.125Z,18.17
2023-02-13T03:51:58.476Z,19.10
2023-02-13T03:54:59.371Z,19.53
2023-02-13T03:57:47.721Z,16.70
2023-02-13T04:00:18.071Z,18.50
2023-02-13T04:02:56.000Z,18.07
2023-02-13T04:05:28.840Z,17.77
2023-02-13T04:07:57.166Z,17.33
2023-02-13T04:10:32.989Z,16.73
2023-02-13T04:13:08.811Z,16.27
2023-02-13T04:15:42.569Z,16.07
2023-02-13T04:18:15.067Z,16.50
2023-02-13T04:20:43.538Z,16.90
2023-02-13T04:23:14.146Z,17.63
2023-02-13T04:25:48.238Z,19.17
2023-02-13T04:28:16.716Z,17.33
2023-02-13T04:30:45.763Z,17.43
2023-02-13T04:33:14.170Z,16.37
2023-02-13T04:35:42.684Z,17.93
2023-02-13T04:38:11.026Z,19.83
2023-02-13T04:40:39.407Z,17.47
2023-02-13T04:43:09.136Z,18.97
2023-02-13T04:45:37.689Z,17.00
2023-02-13T04:48:09.837Z,15.60
2023-02-13T04:50:38.326Z,15.87
2023-02-13T04:53:06.820Z,15.77
2023-02-13T04:55:38.034Z,15.60
2023-02-13T04:58:06.391Z,16.50
2023-02-13T05:00:38.801Z,14.23
2023-02-13T05:03:08.639Z,16.93
2023-02-13T05:05:37.416Z,14.43
2023-02-13T05:08:07.132Z,14.93
2023-02-13T05:10:37.732Z,15.87
2023-02-13T05:13:06.901Z,14.30
2023-02-13T05:15:36.862Z,15.07
2023-02-13T05:18:08.541Z,13.67
2023-02-13T05:20:36.949Z,15.03
2023-02-13T05:23:25.056Z,14.47
2023-02-13T05:25:54.132Z,16.00
2023-02-13T05:28:40.108Z,15.73
2023-02-13T05:31:09.983Z,17.07
2023-02-13T05:33:38.576Z,17.27
2023-02-13T05:36:07.743Z,15.07
2023-02-13T05:38:36.605Z,14.40
2023-02-13T05:41:07.727Z,16.40
2023-02-13T05:43:36.274Z,16.73
2023-02-13T05:46:06.519Z,15.70
2023-02-13T05:48:37.459Z,15.30
2023-02-13T05:51:06.503Z,15.77
2023-02-13T05:53:37.714Z,14.90
2023-02-13T05:56:07.752Z,14.53
2023-02-13T05:58:47.188Z,15.10
2023-02-13T06:01:19.029Z,18.60
2023-02-13T06:03:49.052Z,18.47
2023-02-13T06:06:18.298Z,21.83
2023-02-13T06:08:46.867Z,24.83
2023-02-13T06:11:15.454Z,26.67
2023-02-13T06:13:43.872Z,25.63
2023-02-13T06:16:13.281Z,19.90
2023-02-13T06:18:42.283Z,21.40
2023-02-13T06:21:12.389Z,18.77
2023-02-13T06:23:40.870Z,19.17
2023-02-13T06:26:10.906Z,17.50
2023-02-13T06:28:39.366Z,17.80
2023-02-13T06:31:07.928Z,15.90
2023-02-13T06:33:36.959Z,15.27
2023-02-13T06:36:06.257Z,16.03
2023-02-13T06:38:36.382Z,17.33
2023-02-13T06:41:07.389Z,15.37
2023-02-13T06:43:40.813Z,22.83
2023-02-13T22:32:10.056Z,62.60
2023-02-13T22:34:38.601Z,82.67
2023-02-13T22:37:08.377Z,71.70
2023-02-13T22:39:36.894Z,62.50
2023-02-13T22:42:05.501Z,59.23
2023-02-13T22:44:33.992Z,63.87
2023-02-13T22:47:02.401Z,64.83
2023-02-13T22:49:32.496Z,59.77
2023-02-13T22:52:02.025Z,58.00
2023-02-13T22:54:30.940Z,60.17
2023-02-13T22:56:59.358Z,57.13
2023-02-13T22:59:27.810Z,59.27
2023-02-13T23:01:56.218Z,49.47
2023-02-13T23:04:24.860Z,51.23
2023-02-13T23:06:54.623Z,54.23
2023-02-13T23:09:23.193Z,54.57
2023-02-13T23:12:08.848Z,54.57
2023-02-13T23:14:37.368Z,54.00
2023-02-13T23:17:22.951Z,58.00
2023-02-13T23:19:51.388Z,59.37
2023-02-13T23:22:21.159Z,70.87
2023-02-13T23:24:49.818Z,66.00
2023-02-13T23:27:18.170Z,56.13
2023-02-13T23:29:46.649Z,57.37
2023-02-13T23:32:15.241Z,55.93
2023-02-13T23:34:46.377Z,52.97
2023-02-13T23:37:14.806Z,53.37
2023-02-13T23:39:45.269Z,52.23
2023-02-13T23:42:14.283Z,51.70
2023-02-13T23:44:45.364Z,51.90
2023-02-13T23:47:16.596Z,47.27
2023-02-13T23:49:45.152Z,45.43
2023-02-13T23:52:15.229Z,42.37
2023-02-13T23:54:47.496Z,41.83
2023-02-13T23:57:15.978Z,45.53
2023-02-13T23:59:46.316Z,54.27
